Time;durP1;ratioP1;P1;durP2;ratioP2;P2;SDS_P1;SDS_P2;PMS_P1;PMS_P2;Temp;Humidity;BMP_temperature;BMP_pressure;BME280_temperature;BME280_humidity;BME280_pressure;Samples;Min_cycle;Max_cycle;Signal;HPM_P1;HPM_P2
2022/05/01 00:01:30;;;;;;;20.47;13.53;;;9.80;99.90;;;;;;5093750;28;20479;-68
2022/05/01 00:03:56;;;;;;;24.90;13.87;;;9.70;99.90;;;;;;5093609;28;20174;-66
2022/05/01 00:06:21;;;;;;;24.17;13.33;;;9.70;99.90;;;;;;5096141;28;20571;-67
2022/05/01 00:08:47;;;;;;;21.13;13.73;;;9.60;99.90;;;;;;5094132;28;20163;-65
2022/05/01 00:11:13;;;;;;;25.57;15.37;;;9.60;99.90;;;;;;5093726;28;20250;-67
2022/05/01 00:13:40;;;;;;;20.43;14.33;;;9.50;99.90;;;;;;5093217;28;20559;-68
2022/05/01 00:16:06;;;;;;;23.67;13.50;;;9.60;99.90;;;;;;5093963;28;20246;-66
2022/05/01 00:18:32;;;;;;;21.37;14.10;;;9.60;99.90;;;;;;5093833;28;20160;-67
2022/05/01 00:20:58;;;;;;;21.57;13.00;;;9.40;99.90;;;;;;5093767;28;20177;-67
2022/05/01 00:23:23;;;;;;;20.67;13.30;;;9.30;99.90;;;;;;5093769;28;20171;-67
2022/05/01 00:25:49;;;;;;;20.60;13.63;;;9.30;99.90;;;;;;5093139;28;20602;-66
2022/05/01 00:28:15;;;;;;;22.83;13.03;;;9.30;99.90;;;;;;5094157;28;20489;-66
2022/05/01 00:30:41;;;;;;;21.03;13.43;;;9.20;99.90;;;;;;5093950;28;20198;-67
2022/05/01 00:38:37;;;;;;;19.87;12.70;;;9.10;99.90;;;;;;5093360;28;20660;-65
2022/05/01 00:41:07;;;;;;;20.47;12.83;;;9.10;99.90;;;;;;5092781;28;20158;-66
2022/05/01 00:44:00;;;;;;;19.50;13.83;;;9.10;99.90;;;;;;5092780;28;20155;-65
2022/05/01 00:46:27;;;;;;;19.37;12.03;;;8.90;99.90;;;;;;5083057;28;20197;-66
2022/05/01 00:48:53;;;;;;;21.67;12.07;;;8.90;99.90;;;;;;5093141;28;20159;-67
2022/05/01 00:51:20;;;;;;;18.87;12.23;;;9.00;99.90;;;;;;5093324;28;20190;-65
2022/05/01 00:53:48;;;;;;;20.83;11.40;;;8.90;99.90;;;;;;5092879;28;20598;-65
2022/05/01 00:56:14;;;;;;;18.40;12.60;;;8.90;99.90;;;;;;5093153;28;20170;-67
2022/05/01 00:58:40;;;;;;;21.23;12.90;;;8.80;99.90;;;;;;5093422;28;20166;-66
2022/05/01 01:01:06;;;;;;;21.20;12.00;;;8.60;99.90;;;;;;5092930;28;20489;-66
2022/05/01 01:03:32;;;;;;;15.87;11.57;;;8.60;99.90;;;;;;5091830;28;20261;-67
2022/05/01 01:05:57;;;;;;;21.87;12.10;;;8.60;99.90;;;;;;5093046;28;20191;-69
2022/05/01 01:08:23;;;;;;;19.83;12.13;;;8.60;99.90;;;;;;5092892;28;20163;-67
2022/05/01 01:10:48;;;;;;;22.40;13.70;;;8.70;99.90;;;;;;5093544;28;20216;-66
2022/05/01 01:13:14;;;;;;;19.20;12.33;;;8.60;99.90;;;;;;5093635;28;20304;-67
2022/05/01 01:15:41;;;;;;;19.07;12.03;;;8.50;99.90;;;;;;5093606;28;20166;-66
2022/05/01 01:18:06;;;;;;;18.37;11.40;;;8.50;99.90;;;;;;5096596;28;20601;-68
2022/05/01 01:20:32;;;;;;;19.73;12.50;;;8.60;99.90;;;;;;5098130;28;20250;-66
2022/05/01 01:23:00;;;;;;;20.33;12.33;;;8.50;99.90;;;;;;5110794;28;20174;-69
2022/05/01 01:25:31;;;;;;;23.33;11.87;;;8.60;99.90;;;;;;5112565;28;20166;-65
2022/05/01 01:28:02;;;;;;;18.60;12.50;;;8.60;99.90;;;;;;5097328;28;20182;-67
2022/05/01 01:33:15;;;;;;;21.80;12.87;;;8.30;99.90;;;;;;5096166;28;20200;-67
2022/05/01 01:35:41;;;;;;;22.37;12.37;;;8.30;99.90;;;;;;5097474;28;20169;-65
2022/05/01 01:38:07;;;;;;;17.40;11.43;;;8.30;99.90;;;;;;5100570;28;20167;-67
2022/05/01 01:40:54;;;;;;;18.10;11.03;;;8.30;99.90;;;;;;5103610;28;20180;-68
2022/05/01 01:43:28;;;;;;;19.00;11.20;;;8.40;99.90;;;;;;5096466;28;20177;-67
2022/05/01 01:45:55;;;;;;;24.53;11.83;;;8.30;99.90;;;;;;5095932;28;20165;-66
2022/05/01 01:48:22;;;;;;;18.83;11.53;;;8.30;99.90;;;;;;5096212;28;20250;-67
2022/05/01 01:51:02;;;;;;;18.03;12.37;;;8.40;99.90;;;;;;5096021;28;20175;-66
2022/05/01 01:53:29;;;;;;;19.53;12.00;;;8.30;99.90;;;;;;5096151;28;20225;-67
2022/05/01 01:55:57;;;;;;;26.03;11.83;;;8.30;99.90;;;;;;5096214;28;20162;-66
2022/05/01 01:58:23;;;;;;;18.10;11.27;;;8.30;99.90;;;;;;5095359;28;20510;-66
2022/05/01 02:00:49;;;;;;;18.90;11.17;;;8.20;99.90;;;;;;5095664;28;20165;-66
2022/05/01 02:03:15;;;;;;;17.40;11.63;;;8.20;99.90;;;;;;5095437;28;20193;-67
2022/05/01 02:05:42;;;;;;;18.90;11.87;;;8.20;99.90;;;;;;5095915;28;20167;-67
2022/05/01 02:08:08;;;;;;;18.17;11.33;;;8.10;99.90;;;;;;5095062;28;20613;-67
2022/05/01 02:10:35;;;;;;;18.70;11.00;;;8.10;99.90;;;;;;5095687;28;20478;-65
2022/05/01 02:13:02;;;;;;;19.70;10.27;;;8.10;99.90;;;;;;5094798;28;20208;-66
2022/05/01 02:15:32;;;;;;;17.47;10.27;;;8.00;99.90;;;;;;5095434;28;20488;-66
2022/05/01 02:18:00;;;;;;;17.67;10.73;;;7.90;99.90;;;;;;5097451;28;20608;-67
2022/05/01 02:23:16;;;;;;;17.53;10.90;;;7.70;99.90;;;;;;5099624;28;20223;-66
2022/05/01 02:25:41;;;;;;;17.73;10.90;;;7.70;99.90;;;;;;5098646;28;20205;-66
2022/05/01 02:28:07;;;;;;;16.17;10.80;;;7.80;99.90;;;;;;5095326;28;20179;-65
2022/05/01 02:30:33;;;;;;;19.40;11.43;;;7.80;99.90;;;;;;5095598;28;20158;-66
2022/05/01 02:32:58;;;;;;;17.90;11.13;;;7.70;99.90;;;;;;5095404;28;20216;-67
2022/05/01 02:35:24;;;;;;;16.83;10.07;;;7.70;99.90;;;;;;5095475;28;20169;-66
2022/05/01 02:37:50;;;;;;;23.03;14.40;;;7.70;99.90;;;;;;5095247;28;20162;-66
2022/05/01 02:40:15;;;;;;;17.57;11.73;;;7.80;99.90;;;;;;5095204;28;20205;-66
2022/05/01 02:42:42;;;;;;;17.57;10.90;;;7.80;99.90;;;;;;5095028;28;20507;-67
2022/05/01 02:45:08;;;;;;;21.17;12.50;;;7.60;99.90;;;;;;5095353;28;20163;-66
2022/05/01 02:47:34;;;;;;;16.67;11.23;;;7.60;99.90;;;;;;5094934;28;20602;-66
2022/05/01 02:50:00;;;;;;;21.53;12.83;;;7.60;99.90;;;;;;5095372;28;20196;-66
2022/05/01 02:52:25;;;;;;;20.43;12.73;;;7.50;99.90;;;;;;5096263;28;20276;-67
2022/05/01 02:54:51;;;;;;;20.23;11.90;;;7.60;99.90;;;;;;5095980;28;20178;-68
2022/05/01 02:57:16;;;;;;;15.63;11.10;;;7.70;99.90;;;;;;5093044;28;20174;-65
2022/05/01 02:59:42;;;;;;;18.70;11.73;;;7.60;99.90;;;;;;5094618;28;20159;-66
2022/05/01 03:02:08;;;;;;;16.73;11.30;;;7.70;99.90;;;;;;5094624;28;20175;-66
2022/05/01 03:04:35;;;;;;;16.77;11.37;;;7.70;99.90;;;;;;5095010;28;20166;-65
2022/05/01 03:07:04;;;;;;;19.83;12.20;;;7.70;99.90;;;;;;5094658;28;20163;-66
2022/05/01 03:09:29;;;;;;;20.57;13.90;;;7.70;99.90;;;;;;5094156;28;20207;-66
2022/05/01 03:11:55;;;;;;;17.20;11.13;;;7.60;99.90;;;;;;5096513;28;20173;-66
2022/05/01 03:14:21;;;;;;;14.53;10.77;;;7.40;99.90;;;;;;5098074;28;20244;-66
2022/05/01 03:16:46;;;;;;;15.03;10.30;;;7.40;99.90;;;;;;5098044;28;20195;-66
2022/05/01 03:22:11;;;;;;;15.60;10.23;;;7.40;99.90;;;;;;5096531;28;20514;-66
2022/05/01 03:24:38;;;;;;;17.80;12.90;;;7.20;99.90;;;;;;5094177;28;20170;-67
2022/05/01 03:27:04;;;;;;;18.90;12.90;;;7.10;99.90;;;;;;5093543;28;20166;-65
2022/05/01 03:29:30;;;;;;;15.33;10.27;;;7.00;99.90;;;;;;5094246;28;20597;-68
2022/05/01 03:31:56;;;;;;;20.93;11.03;;;7.10;99.90;;;;;;5094364;28;20166;-65
2022/05/01 03:34:23;;;;;;;22.33;10.97;;;7.20;99.90;;;;;;5094541;28;20195;-67
2022/05/01 03:36:49;;;;;;;19.97;11.53;;;7.10;99.90;;;;;;5093955;28;20613;-66
2022/05/01 03:39:15;;;;;;;18.70;12.93;;;7.10;99.90;;;;;;5092464;28;20185;-65
2022/05/01 03:41:42;;;;;;;19.67;13.40;;;7.10;99.90;;;;;;5094385;28;20236;-66
2022/05/01 03:44:07;;;;;;;14.80;9.77;;;7.00;99.90;;;;;;5094065;28;20163;-67
2022/05/01 03:46:36;;;;;;;19.87;12.37;;;7.00;99.90;;;;;;5094839;28;20198;-65
2022/05/01 03:49:02;;;;;;;19.47;11.10;;;7.00;99.90;;;;;;5093851;28;20154;-66
2022/05/01 03:51:31;;;;;;;21.07;12.23;;;7.00;99.90;;;;;;5093961;28;20511;-65
2022/05/01 03:54:02;;;;;;;16.10;10.17;;;7.00;99.90;;;;;;5094103;28;20209;-65
2022/05/01 03:56:31;;;;;;;13.37;10.30;;;7.00;99.90;;;;;;5094301;28;20166;-68
2022/05/01 03:58:57;;;;;;;16.67;11.00;;;7.00;99.90;;;;;;5096618;28;20162;-66
2022/05/01 04:01:24;;;;;;;16.13;9.77;;;7.00;99.90;;;;;;5101891;28;20165;-66
2022/05/01 04:03:51;;;;;;;19.77;13.23;;;6.90;99.90;;;;;;5094949;28;20261;-66
2022/05/01 04:06:16;;;;;;;19.60;12.43;;;7.10;99.90;;;;;;5094953;28;20588;-66
2022/05/01 04:08:42;;;;;;;18.20;10.57;;;7.00;99.90;;;;;;5095976;28;20224;-66
2022/05/01 04:11:08;;;;;;;19.63;13.27;;;7.00;99.90;;;;;;5096491;28;20492;-67
2022/05/01 04:13:35;;;;;;;20.53;13.77;;;6.80;99.90;;;;;;5101628;28;20548;-67
2022/05/01 04:16:02;;;;;;;19.13;12.23;;;6.80;99.90;;;;;;5099017;28;20214;-65
2022/05/01 04:18:27;;;;;;;20.57;13.30;;;6.90;99.90;;;;;;5101133;28;20232;-66
2022/05/01 04:20:53;;;;;;;20.60;12.97;;;6.90;99.90;;;;;;5098618;28;20542;-65
2022/05/01 04:23:20;;;;;;;13.47;9.50;;;6.80;99.90;;;;;;5097142;28;20231;-65
2022/05/01 04:25:45;;;;;;;17.40;12.27;;;6.90;99.90;;;;;;5100432;28;20602;-66
2022/05/01 04:28:12;;;;;;;16.53;12.10;;;7.00;99.90;;;;;;5098652;28;20167;-66
2022/05/01 04:30:40;;;;;;;19.17;13.00;;;7.00;99.90;;;;;;5101162;28;20194;-66
2022/05/01 04:33:14;;;;;;;18.93;11.97;;;7.20;99.90;;;;;;5102223;28;20191;-67
2022/05/01 04:35:47;;;;;;;20.03;12.77;;;7.10;99.90;;;;;;5101515;28;20166;-65
2022/05/01 04:38:18;;;;;;;18.57;12.20;;;7.20;99.90;;;;;;5100720;28;20233;-66
2022/05/01 04:40:52;;;;;;;13.10;10.30;;;7.10;99.90;;;;;;5100547;28;20165;-66
2022/05/01 04:43:26;;;;;;;20.73;12.70;;;7.10;99.90;;;;;;5100638;28;20159;-68
2022/05/01 04:45:53;;;;;;;24.63;13.57;;;7.20;99.90;;;;;;5101880;28;20161;-67
2022/05/01 04:48:20;;;;;;;19.13;12.53;;;7.30;99.90;;;;;;5099354;28;20269;-66
2022/05/01 04:50:47;;;;;;;17.27;10.33;;;7.10;99.90;;;;;;5097479;28;20157;-64
2022/05/01 04:53:15;;;;;;;18.77;11.57;;;7.20;99.90;;;;;;5099574;28;20678;-67
2022/05/01 04:55:42;;;;;;;19.73;13.70;;;7.30;99.90;;;;;;5098089;28;20159;-68
2022/05/01 04:58:09;;;;;;;18.93;12.57;;;7.30;99.90;;;;;;5097155;28;20184;-66
2022/05/01 05:00:35;;;;;;;17.33;10.00;;;7.50;99.90;;;;;;5097545;28;20158;-66
2022/05/01 05:03:02;;;;;;;17.03;10.40;;;7.70;99.90;;;;;;5097314;28;20250;-66
2022/05/01 05:05:29;;;;;;;15.37;9.90;;;7.70;99.90;;;;;;5096191;28;20171;-68
2022/05/01 05:07:55;;;;;;;17.83;10.80;;;7.80;99.90;;;;;;5096066;28;20603;-66
2022/05/01 05:10:21;;;;;;;16.97;10.60;;;7.90;99.90;;;;;;5097427;28;20517;-66
2022/05/01 05:12:49;;;;;;;16.23;10.20;;;8.00;99.90;;;;;;5097919;28;20236;-66
2022/05/01 05:15:16;;;;;;;18.30;10.57;;;7.90;99.90;;;;;;5097288;28;20173;-65
2022/05/01 05:17:43;;;;;;;13.53;10.17;;;7.90;99.90;;;;;;5098759;28;20172;-66
2022/05/01 05:20:11;;;;;;;16.57;10.40;;;7.90;99.90;;;;;;5097238;28;20605;-66
2022/05/01 05:22:37;;;;;;;15.47;10.53;;;8.00;99.90;;;;;;5095564;28;20763;-66
2022/05/01 05:25:04;;;;;;;16.53;9.90;;;8.20;99.90;;;;;;5097159;28;20234;-66
2022/05/01 05:27:29;;;;;;;17.30;10.97;;;8.40;99.90;;;;;;5096229;28;20189;-65
2022/05/01 05:29:56;;;;;;;16.17;9.90;;;8.40;99.90;;;;;;5096419;28;20151;-67
2022/05/01 05:32:24;;;;;;;15.60;11.07;;;8.30;99.90;;;;;;5096136;28;20170;-66
2022/05/01 05:34:50;;;;;;;16.57;10.37;;;8.40;99.90;;;;;;5096692;28;20174;-66
2022/05/01 05:37:17;;;;;;;17.23;10.00;;;8.40;99.90;;;;;;5096501;28;20220;-65
2022/05/01 05:39:43;;;;;;;22.10;10.57;;;8.60;99.90;;;;;;5096983;28;20167;-67
2022/05/01 05:42:09;;;;;;;12.67;9.97;;;8.60;99.90;;;;;;5098481;28;20166;-67
2022/05/01 05:44:34;;;;;;;16.47;10.83;;;8.70;99.90;;;;;;5096988;28;20163;-66
2022/05/01 05:47:00;;;;;;;21.70;11.20;;;8.70;99.90;;;;;;5095841;28;20197;-67
2022/05/01 05:49:26;;;;;;;22.33;11.63;;;9.00;99.90;;;;;;5096227;28;20506;-65
2022/05/01 05:51:52;;;;;;;18.43;12.47;;;8.90;99.90;;;;;;5096196;28;20234;-68
2022/05/01 05:54:17;;;;;;;20.53;12.03;;;8.70;99.90;;;;;;5096056;28;20216;-67
2022/05/01 05:56:43;;;;;;;15.70;11.43;;;8.90;99.90;;;;;;5095972;28;20170;-66
2022/05/01 05:59:09;;;;;;;20.20;11.40;;;9.10;99.90;;;;;;5095801;28;20602;-68
2022/05/01 06:01:34;;;;;;;16.73;11.90;;;9.30;99.90;;;;;;5095642;28;20167;-67
2022/05/01 06:04:00;;;;;;;21.20;11.67;;;9.20;99.90;;;;;;5097568;28;20167;-66
2022/05/01 06:06:26;;;;;;;17.30;11.53;;;9.40;99.90;;;;;;5100553;28;20155;-66
2022/05/01 06:08:52;;;;;;;18.40;11.40;;;9.40;99.90;;;;;;5097217;28;20173;-67
2022/05/01 06:11:17;;;;;;;20.10;11.93;;;9.60;99.90;;;;;;5097544;28;20159;-66
2022/05/01 06:13:43;;;;;;;16.10;11.27;;;9.60;99.90;;;;;;5094888;28;20190;-70
2022/05/01 06:16:08;;;;;;;20.03;12.23;;;9.60;99.90;;;;;;5120053;28;20167;-67
2022/05/01 06:18:34;;;;;;;17.83;11.70;;;9.70;99.90;;;;;;5119431;28;20515;-66
2022/05/01 06:21:00;;;;;;;20.73;11.90;;;10.00;99.90;;;;;;5120444;28;20170;-66
2022/05/01 06:23:26;;;;;;;20.50;12.57;;;9.80;99.90;;;;;;5118419;28;20590;-66
2022/05/01 06:25:52;;;;;;;17.47;12.17;;;10.10;99.90;;;;;;5117324;28;20166;-67
2022/05/01 06:28:17;;;;;;;21.40;14.03;;;10.10;99.90;;;;;;5116870;28;20200;-66
2022/05/01 06:30:47;;;;;;;21.47;14.20;;;10.30;99.90;;;;;;5104801;28;20185;-66
2022/05/01 06:33:16;;;;;;;19.23;13.40;;;10.50;99.90;;;;;;5096201;28;20198;-66
2022/05/01 06:35:44;;;;;;;22.60;13.83;;;10.70;99.90;;;;;;5095818;28;20655;-67
2022/05/01 06:38:10;;;;;;;24.50;14.60;;;10.80;99.90;;;;;;5096364;28;20592;-65
2022/05/01 06:40:38;;;;;;;23.03;14.37;;;10.80;99.90;;;;;;5096339;28;20174;-67
2022/05/01 06:43:04;;;;;;;18.93;13.10;;;10.90;99.90;;;;;;5096005;28;20160;-65
2022/05/01 06:45:30;;;;;;;23.73;14.53;;;11.10;99.90;;;;;;5095879;28;20189;-68
2022/05/01 06:47:55;;;;;;;21.77;15.03;;;11.10;99.90;;;;;;5115690;28;20158;-66
2022/05/01 06:50:21;;;;;;;22.70;14.13;;;11.10;99.90;;;;;;5115374;28;20582;-66
2022/05/01 06:52:47;;;;;;;21.97;15.20;;;11.00;99.90;;;;;;5114484;28;20316;-66
2022/05/01 06:55:14;;;;;;;26.67;15.67;;;11.20;99.90;;;;;;5113932;28;20212;-68
2022/05/01 06:57:39;;;;;;;26.27;14.27;;;11.30;99.90;;;;;;5115232;28;20207;-66
2022/05/01 07:00:06;;;;;;;23.47;16.00;;;11.50;99.90;;;;;;5116123;28;20457;-67
2022/05/01 07:02:32;;;;;;;25.37;15.67;;;11.80;99.90;;;;;;5115421;28;20537;-68
2022/05/01 07:04:58;;;;;;;25.10;15.80;;;11.80;99.90;;;;;;5118261;28;20193;-66
2022/05/01 07:07:23;;;;;;;25.60;14.40;;;11.70;99.90;;;;;;5116997;28;20159;-67
2022/05/01 07:09:50;;;;;;;24.90;15.93;;;11.60;99.90;;;;;;5120335;28;20170;-66
2022/05/01 07:12:16;;;;;;;24.37;15.00;;;12.20;99.90;;;;;;5119343;28;20202;-68
2022/05/01 07:14:43;;;;;;;21.63;14.80;;;12.40;99.90;;;;;;5121264;28;20237;-68
2022/05/01 07:17:09;;;;;;;27.90;14.60;;;12.50;99.90;;;;;;5124741;28;20167;-67
2022/05/01 07:19:34;;;;;;;19.40;14.67;;;12.70;99.90;;;;;;5123089;28;20576;-65
2022/05/01 07:22:00;;;;;;;26.83;14.97;;;12.80;99.90;;;;;;5116329;28;20154;-66
2022/05/01 07:24:26;;;;;;;19.83;14.20;;;12.90;99.90;;;;;;5113740;28;20177;-65
2022/05/01 07:26:51;;;;;;;22.57;15.13;;;12.70;99.90;;;;;;5114647;28;20189;-68
2022/05/01 07:29:17;;;;;;;22.93;14.67;;;12.80;99.90;;;;;;5114358;28;20154;-68
2022/05/01 07:31:43;;;;;;;21.77;13.93;;;12.90;99.90;;;;;;5114743;28;20170;-66
2022/05/01 07:34:10;;;;;;;24.17;14.00;;;13.00;99.90;;;;;;5114658;28;20288;-66
2022/05/01 07:36:36;;;;;;;21.70;14.70;;;12.90;99.90;;;;;;5114333;28;20147;-67
2022/05/01 07:39:02;;;;;;;20.37;13.37;;;13.10;99.90;;;;;;5114055;28;20154;-65
2022/05/01 07:41:28;;;;;;;26.20;14.63;;;13.00;99.90;;;;;;5114396;28;20610;-67
2022/05/01 07:43:55;;;;;;;21.33;12.73;;;13.10;99.90;;;;;;5113111;28;20177;-67
2022/05/01 07:46:24;;;;;;;21.27;13.83;;;13.40;99.90;;;;;;5114043;28;20286;-68
2022/05/01 07:48:50;;;;;;;17.07;12.63;;;13.70;99.90;;;;;;5114034;28;20154;-67
2022/05/01 07:51:16;;;;;;;20.07;12.27;;;13.70;99.90;;;;;;5113570;28;20204;-66
2022/05/01 07:53:41;;;;;;;18.20;12.00;;;13.90;99.90;;;;;;5114087;28;20252;-66
2022/05/01 07:56:07;;;;;;;17.97;13.73;;;13.80;99.90;;;;;;5113336;28;20265;-66
2022/05/01 07:58:33;;;;;;;19.30;13.13;;;13.90;99.90;;;;;;5114189;28;20562;-67
2022/05/01 08:01:01;;;;;;;18.20;13.47;;;14.00;99.90;;;;;;5113806;28;20194;-67
2022/05/01 08:06:12;;;;;;;21.03;13.27;;;14.20;99.90;;;;;;5113822;28;20169;-65
2022/05/01 08:08:39;;;;;;;17.53;12.00;;;14.20;99.90;;;;;;5113094;28;20177;-67
2022/05/01 08:11:05;;;;;;;17.73;12.57;;;14.30;99.90;;;;;;5113963;28;20212;-65
2022/05/01 08:13:31;;;;;;;19.57;12.97;;;14.30;99.90;;;;;;5114307;28;20197;-66
2022/05/01 08:15:57;;;;;;;18.27;12.13;;;14.60;99.90;;;;;;5114019;28;20203;-68
2022/05/01 08:21:09;;;;;;;18.57;12.73;;;14.80;99.90;;;;;;5114146;28;20223;-68
2022/05/01 08:23:37;;;;;;;17.50;12.60;;;15.00;99.90;;;;;;5114468;28;20163;-66
2022/05/01 08:26:06;;;;;;;20.30;13.30;;;15.20;99.90;;;;;;5116233;28;20239;-68
2022/05/01 08:28:37;;;;;;;18.57;13.20;;;15.60;99.90;;;;;;5118194;28;20158;-66
2022/05/01 08:31:05;;;;;;;18.33;11.90;;;15.60;99.90;;;;;;5118961;28;20651;-67
2022/05/01 08:33:31;;;;;;;18.83;12.73;;;15.90;99.90;;;;;;5118304;28;20230;-67
2022/05/01 08:35:56;;;;;;;18.80;12.67;;;15.90;99.90;;;;;;5118290;28;20162;-67
2022/05/01 08:38:22;;;;;;;16.77;12.33;;;16.10;99.90;;;;;;5117478;28;20223;-68
2022/05/01 08:40:50;;;;;;;17.10;11.50;;;16.20;99.90;;;;;;5117776;28;20497;-67
2022/05/01 08:43:19;;;;;;;19.17;11.67;;;16.10;99.90;;;;;;5117658;28;20203;-68
2022/05/01 08:45:48;;;;;;;17.27;10.95;;;16.30;99.90;;;;;;5118204;27;20166;-64
2022/05/01 08:48:19;;;;;;;17.90;11.73;;;16.20;99.90;;;;;;5116986;28;20173;-68
2022/05/01 08:50:45;;;;;;;23.67;11.63;;;16.10;99.90;;;;;;5118734;28;20254;-66
2022/05/01 08:53:12;;;;;;;24.67;12.30;;;16.30;99.90;;;;;;5117427;28;20226;-67
2022/05/01 08:55:39;;;;;;;15.48;10.43;;;16.50;99.90;;;;;;5117762;28;20310;-67
2022/05/01 08:58:05;;;;;;;16.93;10.77;;;16.40;99.20;;;;;;5118304;28;20184;-65
2022/05/01 09:00:31;;;;;;;16.10;10.80;;;16.40;99.90;;;;;;5122351;28;20158;-66
2022/05/01 09:02:57;;;;;;;17.93;10.03;;;16.80;98.80;;;;;;5121425;28;20370;-66
2022/05/01 09:05:22;;;;;;;15.95;10.48;;;16.60;96.90;;;;;;5119794;28;20166;-67
2022/05/01 09:07:48;;;;;;;14.23;9.93;;;16.50;96.60;;;;;;5121787;28;20222;-65
2022/05/01 09:10:14;;;;;;;16.45;9.85;;;17.00;96.00;;;;;;5124704;28;20582;-66
2022/05/01 09:12:49;;;;;;;15.18;9.73;;;17.20;94.50;;;;;;5122666;28;20166;-72
2022/05/01 09:15:37;;;;;;;75.00;45.60;;;17.20;95.60;;;;;;5122823;28;20603;-72
2022/05/01 09:18:03;;;;;;;19.38;13.25;;;17.80;99.90;;;;;;5121644;28;20174;-71
2022/05/01 09:20:29;;;;;;;14.00;9.65;;;17.80;93.00;;;;;;5122768;28;20170;-66
2022/05/01 09:22:58;;;;;;;14.38;9.43;;;17.30;91.10;;;;;;5123398;28;20166;-66
2022/05/01 09:25:27;;;;;;;14.45;9.73;;;17.40;91.20;;;;;;5119095;28;20151;-67
2022/05/01 09:27:59;;;;;;;14.05;8.52;;;17.30;90.40;;;;;;5117984;28;20484;-67
2022/05/01 09:30:33;;;;;;;13.50;8.75;;;17.40;90.50;;;;;;5117485;28;20197;-69
2022/05/01 09:33:00;;;;;;;17.20;9.43;;;17.70;89.30;;;;;;5118514;28;20201;-68
2022/05/01 09:35:27;;;;;;;15.85;9.00;;;17.50;88.10;;;;;;5122248;28;20224;-66
2022/05/01 09:38:22;;;;;;;15.00;9.23;;;17.90;87.30;;;;;;5124290;28;20166;-68
2022/05/01 09:40:49;;;;;;;11.43;8.45;;;18.10;84.90;;;;;;5121349;28;20174;-67
2022/05/01 09:43:34;;;;;;;14.57;9.27;;;18.50;83.90;;;;;;5123131;28;20176;-68
2022/05/01 09:46:18;;;;;;;14.25;8.85;;;18.40;79.50;;;;;;5118208;28;20170;-68
2022/05/01 09:49:01;;;;;;;14.57;8.80;;;18.40;79.10;;;;;;5117063;28;20181;-68
2022/05/01 09:51:28;;;;;;;13.93;8.43;;;18.30;79.70;;;;;;5116678;28;20519;-67
2022/05/01 09:53:54;;;;;;;12.02;8.45;;;18.30;80.40;;;;;;5116786;28;20212;-67
2022/05/01 09:56:20;;;;;;;14.10;7.68;;;18.60;79.10;;;;;;5115963;28;20181;-68
2022/05/01 09:58:45;;;;;;;8.45;7.15;;;18.70;76.90;;;;;;5116536;28;20490;-66
2022/05/01 10:01:13;;;;;;;11.82;8.10;;;18.50;76.10;;;;;;5115626;28;20181;-67
2022/05/01 10:03:48;;;;;;;11.57;7.68;;;18.70;75.50;;;;;;5115815;28;20216;-68
2022/05/01 10:06:16;;;;;;;14.10;8.10;;;18.90;75.30;;;;;;5117091;28;20158;-67
2022/05/01 10:08:43;;;;;;;10.18;6.85;;;19.00;73.70;;;;;;5116344;27;20158;-69
2022/05/01 10:11:14;;;;;;;11.30;7.70;;;19.10;70.20;;;;;;5116839;28;20278;-68
2022/05/01 10:13:40;;;;;;;11.00;6.72;;;19.00;70.80;;;;;;5116362;28;20285;-67
2022/05/01 10:16:09;;;;;;;12.43;6.20;;;19.10;70.00;;;;;;5116430;28;20161;-68
2022/05/01 10:18:35;;;;;;;8.35;4.90;;;19.00;64.10;;;;;;5122674;28;20171;-67
2022/05/01 10:21:02;;;;;;;7.03;5.00;;;19.00;58.10;;;;;;5135073;28;20158;-69
2022/05/01 10:23:29;;;;;;;10.05;5.25;;;19.40;56.10;;;;;;5125372;28;20210;-68
2022/05/01 10:25:57;;;;;;;7.15;4.43;;;19.90;54.80;;;;;;5115021;28;20185;-68
2022/05/01 10:28:37;;;;;;;7.80;4.75;;;20.00;52.40;;;;;;5115731;28;20165;-67
2022/05/01 10:34:28;;;;;;;8.30;4.38;;;19.90;50.60;;;;;;5115693;28;20604;-67
2022/05/01 10:37:15;;;;;;;5.60;4.32;;;20.10;51.70;;;;;;5114997;28;20174;-69
2022/05/01 10:39:42;;;;;;;7.95;4.70;;;20.20;50.90;;;;;;5117307;28;20491;-68
2022/05/01 10:42:08;;;;;;;6.00;4.30;;;20.20;51.20;;;;;;5116171;28;20253;-69
2022/05/01 10:44:36;;;;;;;7.60;4.70;;;20.10;48.50;;;;;;5115975;28;20249;-66
2022/05/01 10:47:12;;;;;;;7.85;4.70;;;20.40;49.40;;;;;;5115718;28;20158;-68
2022/05/01 10:49:41;;;;;;;5.57;4.50;;;20.20;49.90;;;;;;5115803;28;20170;-68
2022/05/01 10:52:20;;;;;;;13.75;4.75;;;20.50;50.50;;;;;;5114862;28;20230;-67
2022/05/01 10:55:07;;;;;;;7.55;4.10;;;20.50;48.50;;;;;;5115587;28;20648;-67
2022/05/01 10:57:33;;;;;;;9.88;4.13;;;20.20;47.80;;;;;;5115139;28;20564;-67
2022/05/01 11:00:05;;;;;;;11.43;4.20;;;20.30;47.70;;;;;;5115510;28;20194;-67
2022/05/01 11:02:35;;;;;;;5.30;3.80;;;20.70;47.00;;;;;;5115505;28;20148;-66
2022/05/01 11:05:01;;;;;;;6.07;4.65;;;20.50;47.10;;;;;;5115010;28;20170;-68
2022/05/01 11:07:27;;;;;;;8.65;5.40;;;20.70;48.80;;;;;;5116549;28;20159;-67
2022/05/01 11:09:56;;;;;;;13.88;5.47;;;20.50;51.00;;;;;;5115719;28;20155;-67
2022/05/01 11:12:22;;;;;;;7.00;5.22;;;20.40;53.00;;;;;;5115660;28;20602;-67
2022/05/01 11:14:51;;;;;;;8.68;5.18;;;20.60;54.70;;;;;;5115458;28;20637;-67
2022/05/01 11:17:50;;;;;;;9.10;5.30;;;20.90;54.90;;;;;;5115380;28;20175;-66
2022/05/01 11:20:21;;;;;;;8.25;5.22;;;20.90;55.80;;;;;;5115177;28;20151;-68
2022/05/01 11:22:48;;;;;;;6.22;4.93;;;21.20;55.60;;;;;;5113596;28;20273;-67
2022/05/01 11:25:38;;;;;;;5.97;5.05;;;20.70;54.60;;;;;;5114309;28;20158;-68
2022/05/01 11:28:03;;;;;;;9.20;4.93;;;20.50;54.20;;;;;;5114865;28;20173;-68
2022/05/01 11:30:30;;;;;;;7.40;4.75;;;20.80;53.20;;;;;;5113544;28;20166;-67
2022/05/01 11:33:06;;;;;;;7.50;4.85;;;20.50;52.60;;;;;;5119942;28;20201;-67
2022/05/01 11:35:56;;;;;;;5.53;4.38;;;20.50;53.70;;;;;;5123414;28;20156;-68
2022/05/01 11:38:40;;;;;;;8.15;5.07;;;20.70;53.10;;;;;;5123169;28;20163;-68
2022/05/01 11:41:06;;;;;;;7.25;4.30;;;20.80;52.10;;;;;;5123985;28;20184;-69
2022/05/01 11:43:34;;;;;;;7.32;4.57;;;20.90;51.70;;;;;;5113445;28;20174;-66
2022/05/01 11:46:02;;;;;;;6.38;4.47;;;20.70;51.20;;;;;;5115658;28;20162;-68
2022/05/01 11:48:28;;;;;;;6.78;4.50;;;21.20;51.90;;;;;;5113584;28;20170;-68
2022/05/01 11:50:58;;;;;;;8.60;5.03;;;20.50;50.50;;;;;;5114549;28;20165;-68
2022/05/01 11:53:28;;;;;;;5.07;4.25;;;20.60;51.30;;;;;;5115014;28;20233;-67
2022/05/01 12:04:36;;;;;;;8.90;4.90;;;21.20;52.60;;;;;;5113657;28;20156;-68
2022/05/01 12:07:12;;;;;;;6.07;4.95;;;21.00;52.60;;;;;;5114052;28;20158;-67
2022/05/01 12:09:40;;;;;;;7.38;5.00;;;21.40;53.60;;;;;;5114104;28;20295;-67
2022/05/01 12:12:11;;;;;;;7.43;5.55;;;21.10;52.60;;;;;;5113677;28;20538;-67
2022/05/01 12:14:38;;;;;;;10.85;5.82;;;21.00;52.50;;;;;;5114171;28;20194;-67
2022/05/01 12:17:24;;;;;;;8.05;5.65;;;20.90;53.20;;;;;;5114177;28;20598;-68
2022/05/01 12:19:51;;;;;;;5.90;4.93;;;21.30;52.20;;;;;;5115044;28;20158;-70
2022/05/01 12:22:17;;;;;;;8.05;5.85;;;21.60;50.50;;;;;;5121371;28;20154;-69
2022/05/01 12:24:43;;;;;;;7.68;5.78;;;21.40;50.70;;;;;;5120162;28;20162;-69
2022/05/01 12:27:10;;;;;;;7.05;5.82;;;21.60;52.50;;;;;;5120226;28;20180;-67
2022/05/01 12:29:38;;;;;;;10.95;6.10;;;21.70;53.20;;;;;;5121963;28;20162;-67
2022/05/01 12:32:09;;;;;;;8.00;6.00;;;21.60;52.90;;;;;;5113874;28;20160;-67
2022/05/01 12:34:48;;;;;;;10.05;6.07;;;21.90;53.90;;;;;;5113800;28;20228;-67
2022/05/01 12:37:19;;;;;;;11.77;5.60;;;21.90;53.30;;;;;;5114051;28;20163;-68
2022/05/01 12:39:57;;;;;;;11.27;5.85;;;21.20;50.70;;;;;;5113266;28;20207;-67
2022/05/01 12:45:17;;;;;;;9.23;5.20;;;21.60;48.00;;;;;;5114023;28;20249;-67
2022/05/01 12:47:53;;;;;;;6.85;5.05;;;20.80;48.30;;;;;;5113430;28;20150;-68
2022/05/01 12:50:18;;;;;;;6.07;4.85;;;20.70;48.20;;;;;;5114298;28;20246;-66
2022/05/01 12:52:46;;;;;;;6.47;4.93;;;20.40;49.10;;;;;;5113428;28;20614;-69
2022/05/01 12:55:20;;;;;;;7.18;5.18;;;20.20;49.80;;;;;;5113235;28;20173;-69
2022/05/01 12:57:48;;;;;;;7.15;4.80;;;20.30;50.10;;;;;;5113434;28;20159;-66
2022/05/01 13:00:37;;;;;;;6.70;5.35;;;20.10;50.20;;;;;;5113617;28;20166;-67
2022/05/01 13:03:25;;;;;;;7.03;4.93;;;20.40;49.80;;;;;;5113699;28;20170;-67
2022/05/01 13:06:00;;;;;;;8.95;5.60;;;20.30;47.90;;;;;;5119836;28;20173;-68
2022/05/01 13:08:27;;;;;;;6.05;4.80;;;20.50;48.80;;;;;;5121413;28;20166;-67
2022/05/01 13:11:23;;;;;;;8.90;4.43;;;20.50;48.10;;;;;;5126899;28;20463;-69
2022/05/01 13:13:57;;;;;;;5.18;4.65;;;20.60;48.00;;;;;;5126825;28;20198;-67
2022/05/01 13:16:32;;;;;;;6.43;4.60;;;20.30;47.90;;;;;;5127598;28;20162;-69